createdAt,value
2023-01-31T00:01:32.711Z,100899.70
2023-01-31T00:04:02.934Z,100902.44
2023-01-31T00:06:32.136Z,100908.63
2023-01-31T00:09:00.508Z,100911.38
2023-01-31T00:11:28.488Z,100913.43
2023-01-31T00:13:55.624Z,100907.92
2023-01-31T00:16:22.898Z,100900.35
2023-01-31T00:18:51.847Z,100898.27
2023-01-31T00:21:26.601Z,100901.02
2023-01-31T00:23:54.362Z,100901.54
2023-01-31T00:26:26.438Z,100902.59
2023-01-31T00:28:54.310Z,100897.95
2023-01-31T00:31:22.695Z,100902.08
2023-01-31T00:33:51.151Z,100902.23
2023-01-31T00:36:20.657Z,100906.04
2023-01-31T00:38:54.047Z,100909.30
2023-01-31T00:41:22.018Z,100908.44
2023-01-31T00:43:50.173Z,100904.30
2023-01-31T00:46:19.919Z,100904.64
2023-01-31T00:48:47.358Z,100901.22
2023-01-31T00:51:14.716Z,100898.48
2023-01-31T00:53:41.645Z,100901.08
2023-01-31T00:56:13.931Z,100899.02
2023-01-31T00:58:45.277Z,100896.64
2023-01-31T01:01:14.840Z,100891.81
2023-01-31T01:03:43.056Z,100896.95
2023-01-31T01:06:10.403Z,100893.85
2023-01-31T01:08:38.288Z,100885.09
2023-01-31T01:11:37.707Z,100880.45
2023-01-31T01:14:04.829Z,100887.15
2023-01-31T01:16:35.544Z,100886.10
2023-01-31T01:19:05.279Z,100892.27
2023-01-31T01:21:32.622Z,100890.20
2023-01-31T01:24:01.273Z,100889.85
2023-01-31T01:26:30.938Z,100886.07
2023-01-31T01:28:58.795Z,100882.64
2023-01-31T01:31:30.120Z,100879.52
2023-01-31T01:34:01.984Z,100881.40
2023-01-31T01:36:29.443Z,100880.01
2023-01-31T01:38:56.696Z,100885.15
2023-01-31T01:41:24.158Z,100878.13
2023-01-31T01:43:52.111Z,100878.13
2023-01-31T01:46:21.318Z,100874.88
2023-01-31T01:48:50.639Z,100876.25
2023-01-31T01:51:18.909Z,100876.93
2023-01-31T01:53:47.373Z,100874.01
2023-01-31T01:56:18.963Z,100877.77
2023-01-31T01:58:47.407Z,100875.89
2023-01-31T02:01:16.439Z,100878.48
2023-01-31T06:07:16.927Z,100907.13
2023-01-31T06:09:44.106Z,100907.52
2023-01-31T06:12:14.737Z,100909.75
2023-01-31T06:14:41.753Z,100915.61
2023-01-31T06:17:09.241Z,100919.72
2023-01-31T06:19:36.800Z,100918.52
2023-01-31T06:22:06.825Z,100920.03
2023-01-31T06:24:33.864Z,100919.27
2023-01-31T06:27:00.914Z,100923.63
2023-01-31T06:29:27.978Z,100923.34
2023-01-31T06:31:55.105Z,100919.48
2023-01-31T06:34:22.356Z,100922.98
2023-01-31T06:36:49.512Z,100921.17
2023-01-31T06:39:16.863Z,100925.00
2023-01-31T06:41:44.008Z,100924.54
2023-01-31T06:44:12.810Z,100926.48
2023-01-31T06:46:39.948Z,100929.29
2023-01-31T06:49:06.790Z,100931.23
2023-01-31T06:51:34.039Z,100934.19
2023-01-31T06:54:01.087Z,100933.00
2023-01-31T06:56:28.651Z,100932.84
2023-01-31T06:58:55.979Z,100932.49
2023-01-31T07:01:23.970Z,100938.30
2023-01-31T07:03:51.020Z,100937.25
2023-01-31T07:06:20.008Z,100938.84
2023-01-31T07:08:48.281Z,100944.88
2023-01-31T07:11:15.336Z,100947.30
2023-01-31T07:13:45.661Z,100943.19
2023-01-31T07:16:14.342Z,100940.11
2023-01-31T07:18:41.264Z,100943.38
2023-01-31T07:21:08.636Z,100951.30
2023-01-31T07:23:35.683Z,100956.33
2023-01-31T07:26:04.594Z,100956.36
2023-01-31T07:28:32.200Z,100954.00
2023-01-31T07:31:06.968Z,100957.48
2023-01-31T07:33:34.211Z,100956.11
2023-01-31T07:36:04.141Z,100957.83
2023-01-31T07:38:32.350Z,100958.35
2023-01-31T07:41:00.576Z,100960.58
2023-01-31T07:43:27.524Z,100960.56
2023-01-31T07:45:55.079Z,100963.64
2023-01-31T07:48:25.001Z,100965.19
2023-01-31T07:50:53.067Z,100968.30
2023-01-31T07:53:20.226Z,100972.61
2023-01-31T07:55:47.652Z,100975.54
2023-01-31T07:58:15.845Z,100975.19
2023-01-31T08:01:01.582Z,100971.92
2023-01-31T08:03:33.684Z,100974.16
2023-01-31T08:06:07.982Z,100976.20
2023-01-31T08:08:36.008Z,100976.71
2023-01-31T08:11:04.768Z,100976.23
2023-01-31T08:13:35.213Z,100976.96
2023-01-31T08:16:03.974Z,100975.08
2023-01-31T08:18:30.925Z,100975.61
2023-01-31T08:20:58.696Z,100975.98
2023-01-31T08:23:27.270Z,100979.63
2023-01-31T08:26:04.761Z,100984.33
2023-01-31T08:28:32.809Z,100984.56
2023-01-31T08:31:08.573Z,100987.17
2023-01-31T08:33:37.896Z,100986.20
2023-01-31T08:36:16.194Z,100986.91
2023-01-31T08:38:44.170Z,100990.03
2023-01-31T08:41:12.085Z,100989.74
2023-01-31T08:43:54.429Z,100990.82
2023-01-31T08:46:29.582Z,100995.16
2023-01-31T08:48:56.466Z,100994.48
2023-01-31T08:51:24.186Z,101000.66
2023-01-31T08:53:51.527Z,100995.33
2023-01-31T08:56:20.830Z,100995.50
2023-01-31T08:58:47.887Z,100996.20
2023-01-31T09:01:16.222Z,100995.85
2023-01-31T09:03:45.162Z,100996.73
2023-01-31T09:06:17.512Z,100999.84
2023-01-31T09:08:44.561Z,101000.89
2023-01-31T09:11:16.732Z,100997.45
2023-01-31T09:15:01.205Z,100997.80
2023-01-31T09:17:28.767Z,100995.75
2023-01-31T09:19:56.536Z,100994.39
2023-01-31T09:22:23.766Z,100991.30
2023-01-31T09:24:50.813Z,100989.95
2023-01-31T09:27:17.861Z,100989.79
2023-01-31T09:29:45.054Z,100990.65
2023-01-31T09:32:12.156Z,100990.48
2023-01-31T09:34:39.409Z,100986.55
2023-01-31T09:37:06.561Z,100985.19
2023-01-31T09:39:34.336Z,100984.00
2023-01-31T09:42:13.864Z,100978.70
2023-01-31T09:44:42.253Z,100979.58
2023-01-31T09:47:21.983Z,100976.66
2023-01-31T09:49:52.408Z,100977.52
2023-01-31T09:52:19.967Z,100977.54
2023-01-31T09:54:46.833Z,100978.91
2023-01-31T09:57:17.032Z,100978.03
2023-01-31T10:00:03.337Z,100981.83
2023-01-31T10:02:38.375Z,100981.13
2023-01-31T16:06:31.859Z,101107.50
2023-01-31T16:09:01.205Z,101105.53
2023-01-31T16:11:33.291Z,101108.02
2023-01-31T16:14:02.577Z,101112.12
2023-01-31T16:16:29.754Z,101111.27
2023-01-31T16:18:57.988Z,101113.13
2023-01-31T16:21:31.179Z,101114.10
2023-01-31T16:23:59.556Z,101115.44
2023-01-31T16:26:30.096Z,101116.76
2023-01-31T16:28:59.018Z,101119.08
2023-01-31T16:31:29.311Z,101117.97
2023-01-31T16:33:59.640Z,101116.61
2023-01-31T16:36:49.712Z,101120.42
2023-01-31T16:39:30.077Z,101115.48
2023-01-31T16:41:58.315Z,101116.22
2023-01-31T16:44:28.359Z,101119.17
2023-01-31T16:46:55.314Z,101115.95
2023-01-31T16:49:29.569Z,101118.61
2023-01-31T16:52:17.569Z,101122.59
2023-01-31T16:55:12.358Z,101122.45
2023-01-31T16:57:39.253Z,101125.21
2023-01-31T17:00:24.587Z,101124.03
2023-01-31T17:02:52.381Z,101126.47
2023-01-31T17:05:24.609Z,101130.41
2023-01-31T17:07:53.297Z,101133.69
2023-01-31T17:10:22.700Z,101133.52
2023-01-31T17:12:50.764Z,101133.34
2023-01-31T17:15:19.921Z,101131.98
2023-01-31T17:17:50.695Z,101134.90
2023-01-31T17:20:19.076Z,101141.97
2023-01-31T17:22:56.928Z,101141.97
2023-01-31T17:25:34.265Z,101150.08
2023-01-31T17:28:01.664Z,101150.27
2023-01-31T17:30:30.034Z,101147.52
2023-01-31T17:32:58.064Z,101150.45
2023-01-31T17:35:39.138Z,101149.06
2023-01-31T17:38:06.389Z,101147.02
2023-01-31T17:40:33.716Z,101146.15
2023-01-31T17:43:02.342Z,101145.65
2023-01-31T17:45:29.376Z,101144.96
2023-01-31T17:47:56.531Z,101147.03
2023-01-31T17:50:28.082Z,101148.41
2023-01-31T17:52:55.230Z,101148.56
2023-01-31T17:55:24.112Z,101150.13
2023-01-31T17:57:52.498Z,101147.36
2023-01-31T18:00:20.355Z,101147.21
2023-01-31T18:02:47.766Z,101152.38
2023-01-31T18:05:24.593Z,101150.48
2023-01-31T18:07:58.704Z,101147.54
2023-01-31T18:10:25.954Z,101148.40
2023-01-31T18:12:53.107Z,101146.34
2023-01-31T18:15:20.578Z,101147.38
2023-01-31T18:17:49.155Z,101147.55
2023-01-31T18:20:18.659Z,101148.05
2023-01-31T18:22:46.108Z,101148.22
2023-01-31T18:25:13.357Z,101150.63
2023-01-31T18:27:41.222Z,101152.70
2023-01-31T18:30:09.192Z,101155.98
2023-01-31T18:32:36.133Z,101161.13
2023-01-31T18:35:06.047Z,101162.34
2023-01-31T18:37:33.402Z,101163.20
2023-01-31T18:40:00.451Z,101159.06
2023-01-31T18:42:29.236Z,101158.91
2023-01-31T18:44:56.194Z,101164.75
2023-01-31T18:47:23.534Z,101157.54
2023-01-31T18:49:50.712Z,101153.23
2023-01-31T18:52:18.044Z,101155.98
2023-01-31T18:54:48.547Z,101155.14
2023-01-31T18:57:15.510Z,101153.08
2023-01-31T18:59:42.583Z,101154.63
2023-01-31T19:02:11.409Z,101159.11
2023-01-31T19:04:38.710Z,101157.21
2023-01-31T19:07:06.265Z,101156.70
2023-01-31T19:09:33.543Z,101155.33
2023-01-31T19:12:04.755Z,101160.86
2023-01-31T19:14:32.824Z,101164.82
2023-01-31T19:17:00.288Z,101163.44
2023-01-31T19:19:27.540Z,101166.20
2023-01-31T19:21:54.581Z,101169.46
2023-01-31T19:24:21.634Z,101173.25
2023-01-31T19:27:05.575Z,101174.46
2023-01-31T19:29:33.030Z,101175.33
2023-01-31T19:32:00.060Z,101176.87
2023-01-31T19:34:27.233Z,101177.38
2023-01-31T19:36:54.410Z,101178.94
2023-01-31T19:39:21.527Z,101179.28
2023-01-31T19:41:48.683Z,101180.84
2023-01-31T19:44:16.023Z,101177.23
2023-01-31T19:46:43.514Z,101181.02
2023-01-31T19:49:10.525Z,101180.33
2023-01-31T19:51:37.777Z,101183.59
2023-01-31T19:54:06.261Z,101184.80
2023-01-31T19:56:33.348Z,101185.66
2023-01-31T19:59:00.669Z,101184.46
2023-01-31T20:01:28.022Z,101181.37
2023-01-31T20:03:55.209Z,101183.62
2023-01-31T20:06:27.332Z,101183.97
2023-01-31T20:08:59.161Z,101184.14
2023-01-31T20:11:27.570Z,101181.40
2023-01-31T20:13:56.867Z,101178.84
2023-01-31T20:16:24.369Z,101179.72
2023-01-31T20:18:52.723Z,101176.79
2023-01-31T20:21:21.089Z,101180.92
2023-01-31T20:23:51.002Z,101183.52
2023-01-31T20:26:18.808Z,101177.66
2023-01-31T20:28:46.111Z,101179.91
2023-01-31T20:31:14.041Z,101178.02
2023-01-31T20:33:41.239Z,101179.05
2023-01-31T20:36:08.518Z,101179.73
2023-01-31T20:38:37.378Z,101181.45
2023-01-31T20:41:06.767Z,101182.65
2023-01-31T20:43:34.130Z,101185.76
2023-01-31T20:46:08.584Z,101191.95
2023-01-31T20:48:35.715Z,101192.48
2023-01-31T20:51:02.951Z,101191.42
2023-01-31T20:53:30.194Z,101193.48
2023-01-31T20:55:57.884Z,101191.04
2023-01-31T20:58:27.058Z,101190.52
2023-01-31T21:00:54.956Z,101192.08
2023-01-31T21:03:22.177Z,101191.89
2023-01-31T21:05:50.059Z,101191.88
2023-01-31T21:08:18.217Z,101189.11
2023-01-31T21:10:51.919Z,101190.83
2023-01-31T21:13:20.008Z,101192.58
2023-01-31T21:15:50.627Z,101189.48
2023-01-31T21:18:17.986Z,101191.18
2023-01-31T21:20:45.224Z,101191.53
2023-01-31T21:23:12.170Z,101189.27
2023-01-31T21:25:39.212Z,101194.78
2023-01-31T21:28:06.271Z,101193.05
2023-01-31T21:30:33.414Z,101196.35
2023-01-31T21:33:00.374Z,101194.97
2023-01-31T21:35:27.504Z,101191.70
2023-01-31T21:37:54.859Z,101194.96
2023-01-31T21:40:22.150Z,101195.14
2023-01-31T21:42:53.364Z,101196.85
2023-01-31T21:45:38.941Z,101192.22
2023-01-31T21:48:28.613Z,101191.01
2023-01-31T21:50:56.482Z,101193.24
2023-01-31T21:53:23.636Z,101187.38
2023-01-31T21:55:59.175Z,101189.96
2023-01-31T21:58:26.464Z,101189.95
2023-01-31T22:00:53.479Z,101189.09
2023-01-31T22:03:20.531Z,101189.79
2023-01-31T22:05:49.004Z,101193.39
2023-01-31T22:08:16.251Z,101193.05
2023-01-31T22:10:43.090Z,101192.17
2023-01-31T22:13:10.763Z,101195.61
2023-01-31T22:15:37.945Z,101195.77
2023-01-31T22:18:05.360Z,101198.68
2023-01-31T22:20:32.407Z,101195.91
2023-01-31T22:23:00.171Z,101193.67
2023-01-31T22:25:27.215Z,101189.02
2023-01-31T22:27:56.311Z,101194.55
2023-01-31T22:30:23.358Z,101191.98
2023-01-31T22:32:51.334Z,101190.45
2023-01-31T22:35:18.375Z,101195.25
2023-01-31T22:37:45.521Z,101190.11
2023-01-31T22:40:13.191Z,101190.97
2023-01-31T22:42:43.619Z,101189.27
2023-01-31T22:45:11.171Z,101188.05
2023-01-31T22:47:38.730Z,101186.48
2023-01-31T22:50:06.389Z,101184.08
2023-01-31T22:52:33.332Z,101182.35
2023-01-31T22:55:00.499Z,101182.53
2023-01-31T22:57:27.524Z,101185.13
2023-01-31T22:59:54.473Z,101185.20
2023-01-31T23:02:21.417Z,101185.75
2023-01-31T23:04:48.463Z,101185.59
2023-01-31T23:07:16.227Z,101186.29
2023-01-31T23:09:43.479Z,101185.77
2023-01-31T23:12:10.731Z,101187.66
2023-01-31T23:14:37.788Z,101185.45
2023-01-31T23:17:23.154Z,101184.41
2023-01-31T23:19:53.757Z,101179.92
2023-01-31T23:22:20.729Z,101183.55
2023-01-31T23:24:47.571Z,101180.23
2023-01-31T23:27:14.928Z,101184.86
2023-01-31T23:29:41.973Z,101181.64
2023-01-31T23:32:09.146Z,101183.38
2023-01-31T23:34:36.167Z,101183.36
2023-01-31T23:37:04.037Z,101185.06
2023-01-31T23:39:31.389Z,101190.69
2023-01-31T23:41:58.332Z,101198.58
2023-01-31T23:44:25.587Z,101199.09
2023-01-31T23:46:52.545Z,101199.10
2023-01-31T23:49:19.472Z,101198.91
2023-01-31T23:51:46.519Z,101198.58
2023-01-31T23:54:13.777Z,101200.18
2023-01-31T23:56:40.951Z,101198.32
2023-01-31T23:59:08.070Z,101195.05
